createdAt,value
2023-03-31T00:04:26.169Z,8.00
2023-03-31T00:10:10.245Z,7.90
2023-03-31T00:15:46.149Z,7.90
2023-03-31T00:21:25.058Z,7.90
2023-03-31T00:26:53.659Z,7.90
2023-03-31T00:32:21.335Z,7.90
2023-03-31T00:37:49.526Z,7.80
2023-03-31T00:43:37.034Z,7.80
2023-03-31T00:49:05.202Z,7.80
2023-03-31T00:54:34.023Z,7.90
2023-03-31T01:00:16.334Z,7.90
2023-03-31T01:05:50.275Z,8.00
2023-03-31T01:11:22.521Z,8.00
2023-03-31T01:16:53.761Z,8.10
2023-03-31T01:22:46.105Z,8.10
2023-03-31T01:28:38.503Z,8.20
2023-03-31T01:34:46.335Z,8.20
2023-03-31T01:40:37.480Z,8.20
2023-03-31T01:46:42.208Z,8.10
2023-03-31T01:52:47.250Z,8.10
2023-03-31T01:58:46.510Z,8.10
2023-03-31T02:04:36.782Z,8.10
2023-03-31T02:10:09.693Z,8.20
2023-03-31T02:15:42.762Z,8.20
2023-03-31T02:21:14.807Z,8.30
2023-03-31T02:27:14.716Z,8.30
2023-03-31T02:32:46.806Z,8.30
2023-03-31T02:38:15.973Z,8.40
2023-03-31T02:43:44.275Z,8.40
2023-03-31T02:49:12.677Z,8.50
2023-03-31T02:55:11.122Z,8.50
2023-03-31T03:00:50.353Z,8.60
2023-03-31T03:06:55.145Z,8.50
2023-03-31T03:13:04.230Z,8.50
2023-03-31T03:18:32.672Z,8.50
2023-03-31T03:24:01.711Z,8.50
2023-03-31T03:29:29.809Z,8.50
2023-03-31T03:34:57.914Z,8.40
2023-03-31T03:40:26.000Z,8.40
2023-03-31T03:45:54.043Z,8.30
2023-03-31T03:51:22.769Z,8.30
2023-03-31T03:56:50.564Z,8.30
2023-03-31T04:02:18.795Z,8.30
2023-03-31T04:07:46.905Z,8.30
2023-03-31T04:13:18.393Z,8.30
2023-03-31T04:18:46.486Z,8.30
2023-03-31T04:24:21.716Z,8.30
2023-03-31T04:29:54.949Z,8.30
2023-03-31T04:35:25.744Z,8.30
2023-03-31T04:40:54.392Z,8.20
2023-03-31T04:46:22.864Z,8.20
2023-03-31T04:51:51.168Z,8.20
2023-03-31T04:57:19.287Z,8.20
2023-03-31T05:02:47.731Z,8.20
2023-03-31T05:08:16.010Z,8.20
2023-03-31T05:13:44.129Z,8.10
2023-03-31T05:19:12.249Z,8.10
2023-03-31T05:24:40.336Z,8.00
2023-03-31T05:30:09.155Z,8.00
2023-03-31T05:35:36.980Z,8.00
2023-03-31T05:41:06.884Z,8.00
2023-03-31T05:46:35.805Z,8.00
2023-03-31T05:52:04.156Z,8.00
2023-03-31T05:57:32.291Z,8.10
2023-03-31T06:03:00.423Z,8.10
2023-03-31T06:08:29.695Z,8.20
2023-03-31T06:13:59.691Z,8.30
2023-03-31T06:19:27.834Z,8.40
2023-03-31T06:24:55.819Z,8.50
2023-03-31T06:30:23.962Z,8.60
2023-03-31T06:35:51.804Z,8.70
2023-03-31T06:41:21.246Z,8.70
2023-03-31T06:46:49.754Z,8.90
2023-03-31T06:52:17.886Z,9.00
2023-03-31T06:57:46.436Z,9.10
2023-03-31T07:03:17.204Z,9.20
2023-03-31T07:08:45.468Z,9.10
2023-03-31T07:14:13.546Z,9.10
2023-03-31T07:19:41.988Z,9.10
2023-03-31T07:25:12.177Z,9.00
2023-03-31T07:30:41.523Z,8.90
2023-03-31T07:36:13.336Z,8.90
2023-03-31T07:41:42.439Z,8.90
2023-03-31T07:47:10.796Z,8.90
2023-03-31T07:52:46.731Z,9.00
2023-03-31T07:58:16.279Z,9.00
2023-03-31T08:03:48.938Z,9.10
2023-03-31T08:09:18.353Z,9.20
2023-03-31T08:14:46.574Z,9.40
2023-03-31T08:20:14.571Z,9.40
2023-03-31T08:25:42.847Z,9.40
2023-03-31T08:31:11.089Z,9.40
2023-03-31T08:36:38.907Z,9.40
2023-03-31T08:42:37.297Z,9.40
2023-03-31T08:48:25.910Z,9.40
2023-03-31T08:54:17.362Z,9.30
2023-03-31T08:59:46.266Z,9.40
2023-03-31T09:05:29.790Z,9.50
2023-03-31T09:11:24.980Z,9.80
2023-03-31T09:17:23.951Z,10.10
2023-03-31T09:23:11.190Z,10.30
2023-03-31T09:28:40.975Z,10.50
2023-03-31T09:34:26.230Z,10.70
2023-03-31T09:39:56.360Z,11.20
2023-03-31T09:45:24.444Z,11.50
2023-03-31T09:51:06.501Z,11.60
2023-03-31T09:56:50.684Z,11.60
2023-03-31T10:02:34.166Z,11.70
2023-03-31T10:08:32.375Z,11.90
2023-03-31T10:14:11.121Z,12.00
2023-03-31T10:19:49.790Z,12.00
2023-03-31T10:25:24.670Z,12.20
2023-03-31T10:30:58.238Z,12.30
2023-03-31T10:36:31.907Z,12.30
2023-03-31T10:42:01.047Z,12.60
2023-03-31T10:47:33.964Z,13.00
2023-03-31T10:53:10.609Z,13.30
2023-03-31T10:59:12.555Z,13.60
2023-03-31T11:05:15.331Z,13.80
2023-03-31T11:11:09.506Z,13.60
2023-03-31T11:16:51.283Z,13.30
2023-03-31T11:22:38.507Z,13.00
2023-03-31T11:28:46.417Z,12.60
2023-03-31T11:34:45.211Z,12.10
2023-03-31T11:40:22.750Z,11.10
2023-03-31T11:45:59.290Z,10.50
2023-03-31T11:51:57.560Z,10.40
2023-03-31T11:57:48.510Z,10.30
2023-03-31T12:03:38.600Z,10.40
2023-03-31T12:09:24.256Z,10.70
2023-03-31T12:15:23.015Z,11.10
2023-03-31T12:20:58.566Z,11.60
2023-03-31T12:26:50.042Z,11.80
2023-03-31T12:32:48.946Z,11.80
2023-03-31T12:39:05.616Z,12.10
2023-03-31T12:44:46.613Z,12.20
2023-03-31T12:51:05.295Z,12.10
2023-03-31T12:57:20.498Z,12.10
2023-03-31T13:02:49.779Z,12.30
2023-03-31T13:09:10.010Z,12.70
2023-03-31T13:14:43.835Z,12.60
2023-03-31T13:20:25.854Z,12.40
2023-03-31T13:25:56.669Z,12.30
2023-03-31T13:32:02.662Z,12.00
2023-03-31T13:38:18.318Z,11.90
2023-03-31T13:44:02.037Z,12.10
2023-03-31T13:50:04.650Z,12.50
2023-03-31T13:56:08.351Z,13.30
2023-03-31T14:02:14.224Z,14.60
2023-03-31T14:07:57.060Z,15.00
2023-03-31T14:13:26.160Z,14.30
2023-03-31T14:19:18.620Z,13.60
2023-03-31T14:25:11.201Z,13.00
2023-03-31T14:30:59.021Z,12.50
2023-03-31T14:36:52.810Z,12.20
2023-03-31T14:42:49.530Z,12.00
2023-03-31T14:48:17.428Z,11.70
2023-03-31T14:53:49.005Z,10.80
2023-03-31T14:59:36.029Z,10.40
2023-03-31T15:05:11.489Z,10.20
2023-03-31T15:10:54.026Z,11.00
2023-03-31T15:16:36.369Z,13.10
2023-03-31T15:22:19.005Z,12.50
2023-03-31T15:27:55.376Z,12.20
2023-03-31T15:33:33.316Z,12.40
2023-03-31T15:39:01.518Z,12.40
2023-03-31T15:44:56.339Z,12.10
2023-03-31T15:50:25.116Z,11.90
2023-03-31T15:56:00.122Z,11.70
2023-03-31T16:01:45.614Z,11.70
2023-03-31T16:07:26.260Z,11.70
2023-03-31T16:13:01.441Z,12.40
2023-03-31T16:18:36.535Z,13.10
2023-03-31T16:24:06.730Z,13.10
2023-03-31T16:29:37.462Z,12.60
2023-03-31T16:35:07.273Z,12.40
2023-03-31T16:40:44.781Z,12.10
2023-03-31T16:46:13.912Z,11.90
2023-03-31T16:51:41.943Z,11.70
2023-03-31T16:57:10.442Z,11.50
2023-03-31T17:02:38.969Z,11.40
2023-03-31T17:08:08.619Z,10.50
2023-03-31T17:13:36.839Z,9.70
2023-03-31T17:19:04.911Z,9.10
2023-03-31T17:24:33.010Z,8.70
2023-03-31T17:30:01.305Z,8.40
2023-03-31T17:35:29.545Z,8.20
2023-03-31T17:41:06.883Z,8.00
2023-03-31T17:46:42.126Z,7.90
2023-03-31T17:52:11.002Z,7.80
2023-03-31T17:57:41.306Z,7.80
2023-03-31T18:03:09.392Z,7.80
2023-03-31T18:08:37.794Z,7.80
2023-03-31T18:14:06.455Z,7.80
2023-03-31T18:19:36.636Z,7.90
2023-03-31T18:25:05.477Z,8.00
2023-03-31T18:30:33.880Z,8.10
2023-03-31T18:36:03.414Z,8.10
2023-03-31T18:41:32.169Z,8.20
2023-03-31T18:47:02.712Z,8.20
2023-03-31T18:52:31.694Z,8.20
2023-03-31T18:58:01.907Z,8.20
2023-03-31T19:03:30.231Z,8.20
2023-03-31T19:09:00.174Z,8.20
2023-03-31T19:14:28.301Z,8.10
2023-03-31T19:19:59.488Z,8.10
2023-03-31T19:25:28.081Z,8.10
2023-03-31T19:30:57.834Z,8.10
2023-03-31T19:36:27.024Z,8.10
2023-03-31T19:41:55.301Z,8.00
2023-03-31T19:47:24.339Z,8.10
2023-03-31T19:52:52.573Z,8.20
2023-03-31T19:58:20.831Z,8.20
2023-03-31T20:03:56.275Z,8.30
2023-03-31T20:09:27.810Z,8.30
2023-03-31T20:14:55.649Z,8.40
2023-03-31T20:20:25.163Z,8.40
2023-03-31T20:25:53.070Z,8.50
2023-03-31T20:31:32.642Z,8.50
2023-03-31T20:37:02.460Z,8.50
2023-03-31T20:42:30.539Z,8.60
2023-03-31T20:47:59.475Z,8.60
2023-03-31T20:53:30.706Z,8.70
2023-03-31T20:59:00.907Z,8.70
2023-03-31T21:04:29.257Z,8.70
2023-03-31T21:09:57.171Z,8.70
2023-03-31T21:15:27.084Z,8.70
2023-03-31T21:21:03.313Z,8.70
2023-03-31T21:26:31.752Z,8.80
2023-03-31T21:32:02.187Z,8.80
2023-03-31T21:37:30.965Z,8.80
2023-03-31T21:42:59.102Z,8.80
2023-03-31T21:48:27.664Z,8.80
2023-03-31T21:53:57.052Z,8.80
2023-03-31T21:59:24.939Z,8.80
2023-03-31T22:04:53.878Z,8.70
2023-03-31T22:10:22.276Z,8.60
2023-03-31T22:15:50.757Z,8.60
2023-03-31T22:21:23.088Z,8.50
2023-03-31T22:26:51.560Z,8.40
2023-03-31T22:32:22.680Z,8.30
2023-03-31T22:37:51.261Z,8.30
2023-03-31T22:43:19.468Z,8.30
2023-03-31T22:48:51.030Z,8.20
2023-03-31T22:54:19.238Z,8.30
2023-03-31T22:59:47.308Z,8.30
2023-03-31T23:05:15.211Z,8.30
2023-03-31T23:10:46.627Z,8.20
2023-03-31T23:16:25.731Z,8.20
2023-03-31T23:21:53.918Z,8.10
2023-03-31T23:27:22.389Z,8.00
2023-03-31T23:32:53.000Z,8.00
2023-03-31T23:38:22.556Z,7.90
2023-03-31T23:43:51.426Z,7.90
2023-03-31T23:49:19.612Z,7.80
2023-03-31T23:54:47.642Z,7.80
